Time;durP1;ratioP1;P1;durP2;ratioP2;P2;SDS_P1;SDS_P2;PMS_P1;PMS_P2;Temp;Humidity;BMP_temperature;BMP_pressure;BME280_temperature;BME280_humidity;BME280_pressure;Samples;Min_cycle;Max_cycle;Signal;HPM_P1;HPM_P2
2022/02/20 00:01:11;;;;;;;8.83;2.10;;;26.40;53.40;;;;;;5052401;28;20203;-84
2022/02/20 00:03:41;;;;;;;8.20;2.03;;;26.60;52.50;;;;;;5053942;28;20241;-85
2022/02/20 00:06:09;;;;;;;9.53;2.17;;;26.60;52.00;;;;;;5053139;28;20207;-85
2022/02/20 00:08:40;;;;;;;9.33;1.90;;;26.50;51.30;;;;;;5053134;28;20709;-79
2022/02/20 00:11:08;;;;;;;8.50;1.90;;;26.80;51.00;;;;;;5053019;28;20511;-80
2022/02/20 00:13:35;;;;;;;10.53;2.17;;;26.70;51.10;;;;;;5053125;28;20626;-78
2022/02/20 00:16:03;;;;;;;5.17;1.93;;;26.50;50.60;;;;;;5051578;28;20179;-86
2022/02/20 00:18:31;;;;;;;10.03;2.20;;;26.50;51.80;;;;;;5051062;28;20184;-87
2022/02/20 00:20:58;;;;;;;10.83;2.07;;;26.90;52.10;;;;;;5052817;28;20172;-79
2022/02/20 00:23:26;;;;;;;8.30;2.07;;;27.00;50.10;;;;;;5052567;28;20180;-84
2022/02/20 00:25:53;;;;;;;8.30;2.03;;;26.70;50.80;;;;;;5050488;28;20870;-85
2022/02/20 00:28:23;;;;;;;7.87;2.00;;;26.80;50.90;;;;;;5045726;28;20274;-77
2022/02/20 00:30:51;;;;;;;6.53;1.83;;;27.00;51.00;;;;;;5052858;28;20180;-80
2022/02/20 00:33:19;;;;;;;9.50;2.00;;;27.20;49.80;;;;;;5051747;28;20271;-77
2022/02/20 00:35:49;;;;;;;11.50;2.23;;;27.30;50.10;;;;;;5049983;28;20228;-79
2022/02/20 00:38:20;;;;;;;7.53;1.90;;;27.20;49.90;;;;;;5052165;28;20180;-82
2022/02/20 00:40:47;;;;;;;8.70;2.00;;;27.30;49.30;;;;;;5051598;28;20207;-80
2022/02/20 00:43:18;;;;;;;8.20;2.73;;;27.30;49.80;;;;;;5052284;28;20658;-79
2022/02/20 00:45:46;;;;;;;6.70;2.03;;;27.20;50.20;;;;;;5050994;28;20219;-84
2022/02/20 00:48:20;;;;;;;7.67;2.40;;;27.10;51.10;;;;;;5052375;28;20557;-77
2022/02/20 00:50:48;;;;;;;8.43;2.00;;;27.80;50.20;;;;;;5049083;28;20201;-83
2022/02/20 00:53:19;;;;;;;10.30;2.40;;;27.90;49.40;;;;;;5049632;28;20184;-79
2022/02/20 00:55:46;;;;;;;7.80;1.93;;;28.10;49.10;;;;;;5042775;28;20215;-79
2022/02/20 00:58:14;;;;;;;11.23;2.27;;;28.10;50.20;;;;;;5047235;28;20180;-77
2022/02/20 01:00:41;;;;;;;9.27;1.93;;;27.80;51.20;;;;;;5051393;28;20176;-81
2022/02/20 01:03:09;;;;;;;8.70;2.17;;;27.50;50.90;;;;;;5051259;28;20253;-79
2022/02/20 01:05:36;;;;;;;7.23;2.33;;;27.70;50.10;;;;;;5053312;28;20199;-80
2022/02/20 01:08:05;;;;;;;6.37;1.90;;;27.80;49.90;;;;;;5051458;28;20180;-82
2022/02/20 01:10:33;;;;;;;12.80;2.43;;;27.40;50.90;;;;;;5053059;28;20407;-83
2022/02/20 01:13:01;;;;;;;10.70;3.10;;;28.00;53.10;;;;;;5052551;28;20191;-86
2022/02/20 01:15:29;;;;;;;13.87;2.63;;;28.10;53.70;;;;;;5052750;28;20225;-85
2022/02/20 01:17:56;;;;;;;11.63;2.30;;;28.50;52.90;;;;;;5052657;28;20180;-78
2022/02/20 01:20:23;;;;;;;11.17;2.73;;;28.50;53.40;;;;;;5051296;28;20229;-80
2022/02/20 01:22:51;;;;;;;10.37;2.50;;;28.30;52.80;;;;;;5051340;28;20195;-85
2022/02/20 01:25:18;;;;;;;15.93;2.83;;;28.60;52.80;;;;;;5050898;28;20184;-80
2022/02/20 01:27:46;;;;;;;11.97;2.13;;;28.60;53.40;;;;;;5047159;28;20701;-83
2022/02/20 01:30:13;;;;;;;15.47;2.90;;;28.30;53.50;;;;;;5052235;28;20183;-85
2022/02/20 01:32:41;;;;;;;17.00;3.03;;;28.50;52.30;;;;;;5052400;28;20215;-81
2022/02/20 01:35:09;;;;;;;12.70;3.07;;;28.20;53.80;;;;;;5052204;28;20175;-82
2022/02/20 01:37:37;;;;;;;11.73;2.63;;;28.40;54.00;;;;;;5051406;28;20273;-81
2022/02/20 01:40:04;;;;;;;16.00;3.20;;;28.40;53.90;;;;;;5049429;28;20181;-81
2022/02/20 01:42:33;;;;;;;10.30;2.90;;;28.30;54.50;;;;;;5048973;28;20267;-79
2022/02/20 01:45:00;;;;;;;13.70;2.80;;;28.30;54.50;;;;;;5051489;28;20230;-78
2022/02/20 01:47:32;;;;;;;14.70;3.17;;;28.20;54.90;;;;;;5050170;28;20219;-80
2022/02/20 01:49:59;;;;;;;13.23;4.00;;;28.40;55.20;;;;;;5051752;28;20599;-79
2022/02/20 01:52:27;;;;;;;9.13;3.27;;;28.50;55.60;;;;;;5050017;28;20213;-84
2022/02/20 01:54:54;;;;;;;15.33;3.33;;;28.60;55.10;;;;;;5050889;28;20589;-78
2022/02/20 01:57:22;;;;;;;18.27;3.13;;;28.10;56.20;;;;;;5050413;28;20684;-78
2022/02/20 01:59:50;;;;;;;18.67;3.43;;;28.40;55.90;;;;;;5045953;28;20181;-79
2022/02/20 02:02:19;;;;;;;13.83;2.83;;;28.70;54.80;;;;;;5050238;28;20199;-79
2022/02/20 02:04:48;;;;;;;15.90;3.00;;;28.10;56.60;;;;;;5047834;28;20283;-80
2022/02/20 02:07:15;;;;;;;17.13;3.70;;;28.30;56.40;;;;;;5048714;28;20215;-79
2022/02/20 02:09:43;;;;;;;14.87;3.30;;;28.30;55.80;;;;;;5045336;28;20198;-79
2022/02/20 02:12:11;;;;;;;15.40;4.10;;;28.50;55.20;;;;;;5049398;28;20607;-82
2022/02/20 02:14:58;;;;;;;12.70;2.90;;;28.50;54.90;;;;;;5050130;28;20631;-81
2022/02/20 02:17:27;;;;;;;18.97;3.50;;;28.40;55.90;;;;;;5050976;28;20853;-80
2022/02/20 02:19:54;;;;;;;14.67;3.10;;;28.70;54.80;;;;;;5050690;28;20210;-79
2022/02/20 02:22:23;;;;;;;16.20;3.97;;;28.80;55.10;;;;;;5050527;28;20199;-79
2022/02/20 02:24:51;;;;;;;12.43;3.30;;;29.00;54.10;;;;;;5051538;28;20179;-77
2022/02/20 02:27:19;;;;;;;14.23;3.30;;;29.00;54.00;;;;;;5049843;28;20299;-78
2022/02/20 02:29:48;;;;;;;13.37;3.07;;;28.90;54.10;;;;;;5052163;28;20180;-79
2022/02/20 02:32:16;;;;;;;14.43;3.27;;;28.80;54.70;;;;;;5051452;28;20184;-79
2022/02/20 02:34:45;;;;;;;10.47;2.90;;;29.10;54.10;;;;;;5051825;28;20191;-80
2022/02/20 02:37:14;;;;;;;15.40;4.93;;;29.20;53.90;;;;;;5049763;28;20176;-79
2022/02/20 02:39:42;;;;;;;21.17;8.17;;;29.30;53.10;;;;;;5051663;28;20192;-78
2022/02/20 02:42:11;;;;;;;16.50;4.20;;;29.50;53.20;;;;;;5051205;28;20184;-80
2022/02/20 02:44:38;;;;;;;15.17;2.93;;;29.50;53.20;;;;;;5051607;28;20188;-79
2022/02/20 02:47:07;;;;;;;16.33;3.90;;;29.40;52.70;;;;;;5049083;28;20961;-81
2022/02/20 02:49:36;;;;;;;16.30;3.67;;;29.20;53.60;;;;;;5052896;28;20504;-80
2022/02/20 02:52:05;;;;;;;15.00;4.07;;;29.40;52.50;;;;;;5054814;28;20180;-80
2022/02/20 02:54:36;;;;;;;11.83;3.33;;;29.50;52.90;;;;;;5054620;28;20165;-76
2022/02/20 02:57:04;;;;;;;13.63;3.07;;;29.30;52.50;;;;;;5052233;28;20187;-76
2022/02/20 02:59:31;;;;;;;15.97;3.23;;;29.40;53.10;;;;;;5055030;28;20176;-78
2022/02/20 03:02:03;;;;;;;13.30;3.08;;;29.20;53.70;;;;;;5055031;28;20649;-81
2022/02/20 03:04:31;;;;;;;15.10;3.90;;;29.60;52.50;;;;;;5052941;28;20572;-83
2022/02/20 03:06:59;;;;;;;12.90;3.70;;;29.50;52.50;;;;;;5054289;28;20215;-81
2022/02/20 03:09:26;;;;;;;18.73;5.10;;;29.60;52.10;;;;;;5054717;28;20179;-80
2022/02/20 03:11:54;;;;;;;12.75;2.90;;;29.90;52.10;;;;;;5054628;28;20200;-81
2022/02/20 03:14:22;;;;;;;14.30;3.60;;;30.20;50.70;;;;;;5054933;28;20179;-85
2022/02/20 03:16:49;;;;;;;13.68;3.22;;;30.10;50.90;;;;;;5053165;28;20191;-83
2022/02/20 03:19:17;;;;;;;7.97;2.97;;;29.80;51.50;;;;;;5053507;28;20271;-82
2022/02/20 03:21:44;;;;;;;18.92;4.22;;;30.20;51.20;;;;;;5054407;28;20184;-79
2022/02/20 03:24:12;;;;;;;14.55;3.70;;;30.60;50.30;;;;;;5053859;28;20227;-81
2022/02/20 03:26:39;;;;;;;18.55;5.72;;;30.30;51.60;;;;;;5053889;28;20704;-76
2022/02/20 03:29:07;;;;;;;14.73;3.38;;;30.40;51.00;;;;;;5053933;28;20226;-82
2022/02/20 03:31:37;;;;;;;15.60;4.45;;;30.60;50.40;;;;;;5053587;28;20589;-84
2022/02/20 03:34:04;;;;;;;19.67;3.70;;;30.50;50.60;;;;;;5053368;28;20639;-79
2022/02/20 03:36:32;;;;;;;14.65;3.72;;;30.80;49.50;;;;;;5051781;28;20634;-85
2022/02/20 03:39:03;;;;;;;9.10;2.60;;;30.40;49.40;;;;;;5046167;28;20188;-81
2022/02/20 03:41:33;;;;;;;14.15;3.22;;;30.60;49.20;;;;;;5054115;28;20228;-85
2022/02/20 03:44:07;;;;;;;17.42;3.38;;;30.40;49.50;;;;;;5052702;28;20592;-83
2022/02/20 03:46:35;;;;;;;12.73;2.97;;;30.60;49.60;;;;;;5046730;28;20588;-86
2022/02/20 03:49:03;;;;;;;17.75;3.38;;;30.50;49.80;;;;;;5051332;28;20720;-85
2022/02/20 03:51:31;;;;;;;13.55;2.67;;;30.30;50.50;;;;;;5053283;28;20176;-80
2022/02/20 03:53:59;;;;;;;16.20;3.33;;;30.30;50.10;;;;;;5052444;28;20642;-85
2022/02/20 03:56:26;;;;;;;12.77;3.38;;;30.50;50.40;;;;;;5051612;28;20274;-80
2022/02/20 03:58:54;;;;;;;10.88;3.08;;;30.90;49.10;;;;;;5053517;28;20187;-92
2022/02/20 04:01:21;;;;;;;13.93;3.25;;;31.00;49.10;;;;;;5048781;28;20787;-77
2022/02/20 04:03:51;;;;;;;12.07;6.10;;;30.70;49.40;;;;;;5053189;28;20650;-84
2022/02/20 04:06:18;;;;;;;15.85;5.05;;;31.10;48.50;;;;;;5050693;28;20643;-81
2022/02/20 04:08:46;;;;;;;10.50;2.92;;;30.90;48.90;;;;;;5051543;28;20178;-80
2022/02/20 04:11:16;;;;;;;16.90;2.95;;;31.40;47.20;;;;;;5051581;28;20184;-80
2022/02/20 04:13:44;;;;;;;10.27;2.97;;;30.80;48.50;;;;;;5053470;28;20657;-76
2022/02/20 04:16:14;;;;;;;9.10;2.90;;;30.80;49.20;;;;;;5052314;28;20680;-85
2022/02/20 04:18:41;;;;;;;12.15;3.10;;;31.70;46.80;;;;;;5053298;28;20642;-75
2022/02/20 04:21:12;;;;;;;8.65;2.63;;;31.50;46.80;;;;;;5051687;28;20207;-85
2022/02/20 04:23:42;;;;;;;12.93;2.90;;;31.40;47.20;;;;;;5053513;28;20538;-82
2022/02/20 04:26:10;;;;;;;8.63;2.80;;;31.30;47.50;;;;;;5050466;28;20208;-79
2022/02/20 04:28:37;;;;;;;11.77;2.88;;;31.20;47.90;;;;;;5049695;28;20180;-80
2022/02/20 04:31:05;;;;;;;8.27;2.80;;;31.30;47.10;;;;;;5051331;28;20176;-80
2022/02/20 04:33:32;;;;;;;8.90;2.85;;;31.60;46.60;;;;;;5067269;28;20260;-80
2022/02/20 04:36:02;;;;;;;13.13;3.33;;;32.30;45.40;;;;;;5051387;28;20234;-80
2022/02/20 04:38:30;;;;;;;10.07;2.75;;;32.40;44.50;;;;;;5047197;28;20208;-77
2022/02/20 04:40:57;;;;;;;8.45;2.75;;;32.40;44.50;;;;;;5052498;28;20587;-77
2022/02/20 04:43:25;;;;;;;9.80;2.53;;;32.30;44.40;;;;;;5051601;28;20566;-82
2022/02/20 04:45:52;;;;;;;8.73;2.97;;;31.90;45.00;;;;;;5053132;28;20216;-80
2022/02/20 04:48:19;;;;;;;8.27;2.83;;;31.80;44.80;;;;;;5053117;28;20188;-79
2022/02/20 04:50:47;;;;;;;12.95;4.90;;;32.40;43.70;;;;;;5052248;28;20176;-81
2022/02/20 04:53:15;;;;;;;11.65;4.68;;;32.10;43.60;;;;;;5052710;28;20183;-82
2022/02/20 04:55:42;;;;;;;8.18;2.80;;;31.60;45.10;;;;;;5051686;28;20176;-78
2022/02/20 04:58:10;;;;;;;9.77;2.38;;;31.90;44.50;;;;;;5051557;28;20270;-78
2022/02/20 05:00:37;;;;;;;7.97;2.33;;;32.00;44.70;;;;;;5054758;28;20244;-80
2022/02/20 05:03:04;;;;;;;11.65;2.90;;;32.40;43.70;;;;;;5068741;28;20547;-80
2022/02/20 05:05:32;;;;;;;8.23;2.60;;;32.40;43.80;;;;;;5068870;28;20164;-82
2022/02/20 05:08:02;;;;;;;6.78;2.30;;;32.00;44.70;;;;;;5068052;28;20231;-83
2022/02/20 05:10:29;;;;;;;15.85;3.00;;;32.30;44.50;;;;;;5071200;28;20227;-77
2022/02/20 05:12:57;;;;;;;7.25;2.50;;;32.80;43.70;;;;;;5057303;28;20184;-78
2022/02/20 05:15:24;;;;;;;9.93;2.80;;;31.30;46.90;;;;;;5053377;28;20172;-76
2022/02/20 05:17:51;;;;;;;6.68;2.28;;;30.70;48.60;;;;;;5050117;28;20188;-78
2022/02/20 05:20:19;;;;;;;10.20;3.03;;;31.10;48.60;;;;;;5050750;28;20191;-81
2022/02/20 05:22:46;;;;;;;18.02;3.28;;;31.80;47.30;;;;;;5051231;28;20180;-78
2022/02/20 05:25:14;;;;;;;15.73;2.78;;;30.70;49.70;;;;;;5051872;28;20735;-78
2022/02/20 05:27:45;;;;;;;13.45;2.72;;;30.10;51.60;;;;;;5051062;28;20235;-82
2022/02/20 05:30:16;;;;;;;10.88;2.50;;;30.10;52.10;;;;;;5052124;28;20184;-84
2022/02/20 05:32:43;;;;;;;12.55;3.05;;;30.00;51.90;;;;;;5050911;28;20176;-80
2022/02/20 05:35:11;;;;;;;10.02;3.20;;;30.30;51.10;;;;;;5051113;28;20326;-77
2022/02/20 05:37:49;;;;;;;13.07;4.87;;;29.80;52.50;;;;;;5052029;28;20583;-78
2022/02/20 05:40:21;;;;;;;14.37;3.50;;;29.30;53.40;;;;;;5051832;28;20212;-82
2022/02/20 05:42:49;;;;;;;9.53;2.57;;;29.10;54.60;;;;;;5051834;28;20195;-78
2022/02/20 05:45:16;;;;;;;10.03;3.30;;;28.70;55.60;;;;;;5050145;28;20231;-80
2022/02/20 05:47:44;;;;;;;15.00;2.97;;;28.80;56.10;;;;;;5048620;28;20696;-78
2022/02/20 05:50:12;;;;;;;7.83;2.63;;;29.10;54.90;;;;;;5051072;28;20180;-80
2022/02/20 05:52:40;;;;;;;13.90;2.93;;;28.70;56.20;;;;;;5050397;28;20184;-76
2022/02/20 05:55:08;;;;;;;12.13;2.67;;;29.00;54.90;;;;;;5050538;28;20544;-79
2022/02/20 05:57:48;;;;;;;13.90;2.67;;;28.90;55.70;;;;;;5051001;28;20637;-78
2022/02/20 06:00:20;;;;;;;16.10;3.33;;;28.80;55.80;;;;;;5050766;28;20180;-78
2022/02/20 06:02:47;;;;;;;15.40;2.90;;;29.20;55.70;;;;;;5050840;28;20183;-78
2022/02/20 06:05:14;;;;;;;11.33;2.43;;;30.00;53.60;;;;;;5050223;28;20237;-83
2022/02/20 06:07:42;;;;;;;12.02;2.85;;;30.80;51.30;;;;;;5049702;28;20215;-78
2022/02/20 06:10:10;;;;;;;14.07;2.67;;;31.20;49.90;;;;;;5049769;28;20191;-86
2022/02/20 06:12:38;;;;;;;9.07;2.55;;;31.20;49.70;;;;;;5048993;28;20279;-81
2022/02/20 06:15:07;;;;;;;13.48;3.08;;;30.80;50.30;;;;;;5048058;28;20179;-77
2022/02/20 06:17:35;;;;;;;9.90;4.45;;;31.30;48.50;;;;;;5047934;28;20184;-86
2022/02/20 06:20:04;;;;;;;13.68;3.58;;;31.00;49.60;;;;;;5050524;28;20179;-81
2022/02/20 06:22:31;;;;;;;11.02;4.40;;;31.10;49.80;;;;;;5050225;28;20186;-80
2022/02/20 06:25:00;;;;;;;13.57;2.72;;;31.20;49.30;;;;;;5053917;28;20241;-81
2022/02/20 06:27:28;;;;;;;10.13;2.40;;;30.60;50.60;;;;;;5051097;28;20285;-84
2022/02/20 06:29:56;;;;;;;12.15;2.92;;;30.50;50.50;;;;;;5054408;28;20176;-87
2022/02/20 06:32:23;;;;;;;12.95;2.72;;;31.00;50.00;;;;;;5050291;28;20191;-78
2022/02/20 06:34:50;;;;;;;10.18;2.80;;;31.10;50.20;;;;;;5053027;28;20657;-79
2022/02/20 06:37:18;;;;;;;10.85;2.72;;;31.10;49.90;;;;;;5050696;28;20192;-75
2022/02/20 06:39:45;;;;;;;18.38;3.08;;;30.70;50.70;;;;;;5053808;28;20180;-78
2022/02/20 06:42:17;;;;;;;15.38;2.92;;;30.80;50.60;;;;;;5053517;28;20222;-80
2022/02/20 06:44:45;;;;;;;14.57;3.10;;;30.70;51.10;;;;;;5053898;28;20183;-80
2022/02/20 06:47:12;;;;;;;12.50;3.30;;;30.90;50.20;;;;;;5052938;28;20265;-78
2022/02/20 06:49:40;;;;;;;11.10;2.42;;;30.90;50.00;;;;;;5051404;28;20278;-82
2022/02/20 06:52:07;;;;;;;9.32;2.58;;;30.80;49.90;;;;;;5053097;28;20186;-83
2022/02/20 06:54:35;;;;;;;12.95;2.92;;;30.30;50.70;;;;;;5052264;28;20594;-79
2022/02/20 06:57:02;;;;;;;10.40;2.85;;;30.60;50.20;;;;;;5052724;28;20530;-81
2022/02/20 06:59:29;;;;;;;12.02;2.90;;;31.10;48.90;;;;;;5055152;28;20206;-76
2022/02/20 07:01:57;;;;;;;14.68;3.28;;;31.10;48.80;;;;;;5052797;28;20641;-83
2022/02/20 07:04:24;;;;;;;9.75;2.47;;;30.90;49.30;;;;;;5054107;28;20192;-79
2022/02/20 07:06:52;;;;;;;7.80;2.50;;;30.20;50.10;;;;;;5054072;28;20661;-83
2022/02/20 07:09:21;;;;;;;10.05;2.53;;;30.00;51.20;;;;;;5053003;28;20164;-80
2022/02/20 07:11:51;;;;;;;11.80;2.80;;;29.80;51.90;;;;;;5053728;28;20191;-79
2022/02/20 07:14:19;;;;;;;11.82;2.97;;;30.00;51.60;;;;;;5054479;28;20164;-78
2022/02/20 07:16:48;;;;;;;13.05;2.72;;;29.80;52.40;;;;;;5054564;28;20172;-84
2022/02/20 07:19:15;;;;;;;7.65;2.80;;;29.60;53.00;;;;;;5054105;28;20634;-83
2022/02/20 07:21:43;;;;;;;12.30;3.40;;;29.80;52.20;;;;;;5053184;28;20187;-79
2022/02/20 07:24:11;;;;;;;14.25;2.60;;;29.40;53.00;;;;;;5052886;28;20249;-79
2022/02/20 07:26:38;;;;;;;12.48;2.80;;;29.30;53.30;;;;;;5053926;28;20211;-79
2022/02/20 07:29:06;;;;;;;15.95;2.72;;;29.30;53.10;;;;;;5052547;28;20172;-84
2022/02/20 07:31:33;;;;;;;12.02;2.97;;;29.30;53.40;;;;;;5051128;28;20186;-78
2022/02/20 07:34:01;;;;;;;16.65;4.85;;;29.60;53.10;;;;;;5052922;28;20183;-82
2022/02/20 07:36:28;;;;;;;15.43;6.87;;;29.50;53.50;;;;;;5052674;28;20180;-78
2022/02/20 07:38:55;;;;;;;13.73;3.20;;;29.40;53.90;;;;;;5052811;28;20202;-81
2022/02/20 07:41:23;;;;;;;11.90;2.83;;;29.10;54.60;;;;;;5052733;28;20186;-79
2022/02/20 07:43:50;;;;;;;12.93;3.00;;;28.70;56.30;;;;;;5053180;28;20253;-76
2022/02/20 07:46:18;;;;;;;11.03;3.13;;;28.30;57.50;;;;;;5053143;28;20232;-78
2022/02/20 07:48:49;;;;;;;12.90;3.10;;;28.40;57.40;;;;;;5048969;28;20180;-82
2022/02/20 07:51:16;;;;;;;14.77;3.17;;;28.20;58.50;;;;;;5052308;28;20183;-81
2022/02/20 07:53:44;;;;;;;16.40;2.77;;;28.30;58.20;;;;;;5052241;28;20180;-76
2022/02/20 07:56:12;;;;;;;11.93;3.40;;;28.30;58.30;;;;;;5051823;28;20172;-79
2022/02/20 07:58:40;;;;;;;12.27;2.57;;;27.80;59.80;;;;;;5052758;28;20180;-78
2022/02/20 08:01:07;;;;;;;17.87;4.37;;;27.30;61.30;;;;;;5053746;28;20237;-78
2022/02/20 08:03:35;;;;;;;17.90;3.20;;;26.90;63.00;;;;;;5053756;28;20654;-83
2022/02/20 08:06:03;;;;;;;19.53;3.63;;;26.60;64.60;;;;;;5053088;28;20330;-80
2022/02/20 08:08:32;;;;;;;15.53;3.80;;;26.40;65.60;;;;;;5052080;28;20175;-78
2022/02/20 08:11:01;;;;;;;15.83;3.47;;;26.30;66.30;;;;;;5053052;28;20210;-76
2022/02/20 08:13:29;;;;;;;21.90;4.17;;;26.00;67.20;;;;;;5052311;28;20688;-79
2022/02/20 08:15:58;;;;;;;19.60;4.27;;;26.00;67.70;;;;;;5053215;28;20176;-78
2022/02/20 08:18:28;;;;;;;15.50;3.73;;;25.90;68.10;;;;;;5053202;28;20172;-79
2022/02/20 08:20:55;;;;;;;22.07;3.57;;;25.80;68.90;;;;;;5052021;28;20652;-75
2022/02/20 08:23:23;;;;;;;18.90;3.70;;;25.80;69.20;;;;;;5051829;28;20172;-81
2022/02/20 08:25:50;;;;;;;10.37;3.17;;;25.70;69.90;;;;;;5052624;28;20626;-81
2022/02/20 08:28:18;;;;;;;16.17;4.10;;;25.60;70.30;;;;;;5049949;28;20184;-78
2022/02/20 08:30:45;;;;;;;17.23;3.73;;;25.50;71.00;;;;;;5053821;28;20172;-83
2022/02/20 08:33:12;;;;;;;18.60;4.20;;;25.40;71.50;;;;;;5052322;28;20542;-83
2022/02/20 08:35:40;;;;;;;18.93;3.83;;;25.40;71.70;;;;;;5052546;28;20168;-80
2022/02/20 08:38:09;;;;;;;22.47;4.27;;;25.30;71.90;;;;;;5052569;28;20184;-82
2022/02/20 08:40:42;;;;;;;17.83;3.70;;;25.30;72.10;;;;;;5053262;28;20215;-81
2022/02/20 08:43:09;;;;;;;19.33;3.70;;;25.30;72.40;;;;;;5051707;28;20203;-79
2022/02/20 08:45:37;;;;;;;18.07;3.97;;;25.20;72.70;;;;;;5052025;28;20631;-84
2022/02/20 08:48:04;;;;;;;17.53;3.80;;;25.20;72.90;;;;;;5048356;28;20223;-81
2022/02/20 08:50:32;;;;;;;17.40;3.97;;;25.20;73.30;;;;;;5052873;28;20721;-81
2022/02/20 08:52:59;;;;;;;21.33;4.60;;;25.10;73.70;;;;;;5052535;28;20211;-80
2022/02/20 08:55:27;;;;;;;28.67;5.80;;;25.00;74.30;;;;;;5052245;28;20179;-84
2022/02/20 08:57:54;;;;;;;17.63;4.33;;;24.90;74.90;;;;;;5052265;28;20591;-84
2022/02/20 09:00:22;;;;;;;26.13;4.53;;;24.90;75.00;;;;;;5053060;28;20198;-85
2022/02/20 09:02:49;;;;;;;23.60;4.37;;;24.90;75.50;;;;;;5049798;28;21746;-77
2022/02/20 09:05:17;;;;;;;22.97;4.83;;;24.90;75.70;;;;;;5052415;28;20644;-87
2022/02/20 09:07:44;;;;;;;22.33;4.70;;;24.90;76.00;;;;;;5052110;28;20211;-83
2022/02/20 09:10:12;;;;;;;24.67;5.23;;;24.80;76.20;;;;;;5050996;28;20176;-84
2022/02/20 09:12:40;;;;;;;18.13;4.03;;;24.80;76.50;;;;;;5052506;28;20184;-81
2022/02/20 09:15:10;;;;;;;21.60;4.87;;;24.80;76.60;;;;;;5051981;28;20178;-85
2022/02/20 09:17:38;;;;;;;21.23;4.33;;;24.80;76.90;;;;;;5052300;28;20176;-82
2022/02/20 09:20:06;;;;;;;23.87;4.30;;;24.80;76.90;;;;;;5051479;28;20195;-80
2022/02/20 09:22:34;;;;;;;16.37;4.37;;;24.70;77.00;;;;;;5051738;28;20222;-81
2022/02/20 09:25:01;;;;;;;21.53;4.47;;;24.70;76.80;;;;;;5051536;28;20211;-83
2022/02/20 09:27:29;;;;;;;14.97;4.40;;;24.80;76.80;;;;;;5048908;28;20212;-79
2022/02/20 09:29:56;;;;;;;19.87;4.07;;;24.80;76.80;;;;;;5052132;28;20175;-82
2022/02/20 09:32:26;;;;;;;28.77;6.83;;;24.70;76.70;;;;;;5051850;28;20642;-83
2022/02/20 09:34:53;;;;;;;24.33;7.47;;;24.80;76.80;;;;;;5051817;28;20176;-82
2022/02/20 09:37:21;;;;;;;20.93;4.47;;;24.70;77.00;;;;;;5051672;28;20183;-86
2022/02/20 09:39:48;;;;;;;26.03;4.60;;;24.70;77.10;;;;;;5050986;28;20184;-79
2022/02/20 09:42:16;;;;;;;23.97;4.10;;;24.70;77.10;;;;;;5050680;28;20626;-84
2022/02/20 09:44:46;;;;;;;20.23;4.17;;;24.70;77.10;;;;;;5050787;28;20183;-77
2022/02/20 09:47:15;;;;;;;20.07;4.20;;;24.70;77.00;;;;;;5051689;28;20303;-80
2022/02/20 09:49:45;;;;;;;26.47;4.63;;;24.70;77.20;;;;;;5051143;28;20176;-80
2022/02/20 09:52:13;;;;;;;28.70;4.70;;;24.70;77.40;;;;;;5051128;28;20262;-83
2022/02/20 09:54:40;;;;;;;21.93;4.90;;;24.60;77.30;;;;;;5049892;28;20202;-81
2022/02/20 09:57:08;;;;;;;25.20;4.70;;;24.70;77.40;;;;;;5049617;28;20180;-80
2022/02/20 09:59:35;;;;;;;26.73;5.17;;;24.70;77.40;;;;;;5050564;28;20247;-88
2022/02/20 10:02:08;;;;;;;26.87;4.83;;;24.70;77.50;;;;;;5051807;28;20180;-78
2022/02/20 10:04:39;;;;;;;21.10;4.37;;;24.70;77.60;;;;;;5051394;28;20195;-82
2022/02/20 10:07:23;;;;;;;14.73;3.67;;;24.70;77.60;;;;;;5050781;28;20204;-80
2022/02/20 10:09:51;;;;;;;29.13;5.17;;;24.70;77.70;;;;;;5050745;28;20262;-84
2022/02/20 10:12:20;;;;;;;30.20;4.77;;;24.60;77.60;;;;;;5051474;28;20188;-83
2022/02/20 10:14:48;;;;;;;20.17;4.37;;;24.70;77.90;;;;;;5051611;28;20175;-82
2022/02/20 10:17:18;;;;;;;28.27;6.80;;;24.70;77.90;;;;;;5050889;28;20187;-78
2022/02/20 10:19:53;;;;;;;31.90;8.00;;;24.60;78.20;;;;;;5051036;28;20176;-75
2022/02/20 10:22:30;;;;;;;25.63;4.10;;;24.70;78.30;;;;;;5050204;28;20265;-79
2022/02/20 10:25:04;;;;;;;31.23;5.03;;;24.70;77.60;;;;;;5050728;28;20180;-78
2022/02/20 10:27:32;;;;;;;22.77;4.73;;;24.70;77.80;;;;;;5040949;28;20619;-86
2022/02/20 10:30:16;;;;;;;18.67;3.93;;;24.70;77.90;;;;;;5050250;28;20646;-75
2022/02/20 10:32:44;;;;;;;21.90;4.53;;;24.60;78.00;;;;;;5049880;28;20211;-79
2022/02/20 10:35:14;;;;;;;20.50;4.80;;;24.60;78.20;;;;;;5049468;28;20194;-78
2022/02/20 10:37:41;;;;;;;18.00;3.80;;;24.60;78.20;;;;;;5050838;28;20186;-78
2022/02/20 10:40:30;;;;;;;21.13;5.00;;;24.60;78.10;;;;;;5049958;28;20214;-78
2022/02/20 10:43:01;;;;;;;23.30;4.63;;;24.60;78.40;;;;;;5050815;28;20180;-76
2022/02/20 10:45:34;;;;;;;25.60;5.10;;;24.60;78.30;;;;;;5049630;28;20647;-77
2022/02/20 10:48:16;;;;;;;21.30;4.17;;;24.60;78.20;;;;;;5045636;28;20223;-78
2022/02/20 10:50:44;;;;;;;27.37;5.10;;;24.60;78.30;;;;;;5046564;28;20180;-79
2022/02/20 10:53:19;;;;;;;21.53;4.57;;;24.60;78.40;;;;;;5050594;28;20192;-77
2022/02/20 10:55:48;;;;;;;22.13;4.73;;;24.60;78.50;;;;;;5046266;28;20167;-79
2022/02/20 10:58:29;;;;;;;24.23;4.83;;;24.60;78.40;;;;;;5051107;28;20237;-82
2022/02/20 11:01:01;;;;;;;21.47;5.63;;;24.50;78.50;;;;;;5047760;28;20227;-78
2022/02/20 11:03:30;;;;;;;24.13;4.47;;;24.50;78.60;;;;;;5045556;28;20176;-76
2022/02/20 11:06:00;;;;;;;20.90;5.20;;;24.50;78.50;;;;;;5051543;28;20262;-81
2022/02/20 11:08:29;;;;;;;21.87;5.87;;;24.50;78.70;;;;;;5050057;28;20658;-79
2022/02/20 11:10:58;;;;;;;30.90;5.33;;;24.50;78.80;;;;;;5052998;28;20180;-78
2022/02/20 11:13:25;;;;;;;29.93;6.37;;;24.40;78.80;;;;;;5086484;28;20180;-79
2022/02/20 11:15:57;;;;;;;27.37;5.73;;;24.50;78.80;;;;;;5054823;28;20266;-76
2022/02/20 11:18:24;;;;;;;26.00;5.60;;;24.50;78.80;;;;;;5054842;28;20318;-79
2022/02/20 11:20:55;;;;;;;28.73;6.37;;;24.50;78.70;;;;;;5054560;28;20710;-76
2022/02/20 11:23:27;;;;;;;19.37;5.17;;;24.70;78.40;;;;;;5054504;28;20175;-81
2022/02/20 11:25:56;;;;;;;24.13;5.30;;;24.70;78.10;;;;;;5053465;28;20187;-85
2022/02/20 11:28:24;;;;;;;21.90;5.07;;;24.70;78.30;;;;;;5049797;28;20275;-77
2022/02/20 11:30:52;;;;;;;25.57;6.57;;;24.70;78.10;;;;;;5054591;28;20525;-80
2022/02/20 11:33:21;;;;;;;21.37;4.73;;;24.70;78.40;;;;;;5053635;28;20180;-78
2022/02/20 11:35:51;;;;;;;22.07;5.77;;;24.70;78.70;;;;;;5052860;28;20778;-83
2022/02/20 11:38:21;;;;;;;21.50;5.33;;;24.70;78.70;;;;;;5054505;28;20172;-81
2022/02/20 11:41:04;;;;;;;21.37;4.50;;;24.60;78.50;;;;;;5054744;28;20176;-83
2022/02/20 11:43:44;;;;;;;28.70;6.00;;;24.70;78.70;;;;;;5069829;28;20175;-79
2022/02/20 11:46:14;;;;;;;27.60;5.90;;;24.60;79.10;;;;;;5054067;28;20231;-79
2022/02/20 11:49:03;;;;;;;24.23;5.03;;;24.70;78.90;;;;;;5048699;28;20207;-78
2022/02/20 11:51:31;;;;;;;23.50;4.90;;;24.70;78.90;;;;;;5050918;28;20692;-76
2022/02/20 11:54:18;;;;;;;17.83;4.30;;;24.60;79.20;;;;;;5053051;28;20180;-76
2022/02/20 11:57:06;;;;;;;28.40;5.80;;;24.60;79.30;;;;;;5053282;28;20211;-75
2022/02/20 11:59:33;;;;;;;26.47;5.23;;;24.60;79.40;;;;;;5048772;28;20529;-75
2022/02/20 12:02:14;;;;;;;21.20;5.47;;;24.50;79.70;;;;;;5053767;28;20513;-75
2022/02/20 12:04:53;;;;;;;24.60;5.30;;;24.50;79.70;;;;;;5051590;28;20184;-75
2022/02/20 12:07:44;;;;;;;27.20;5.40;;;24.50;79.90;;;;;;5053601;28;20239;-77
2022/02/20 12:10:22;;;;;;;25.23;6.53;;;24.50;79.80;;;;;;5052110;28;20180;-75
2022/02/20 12:12:55;;;;;;;24.97;5.30;;;24.40;80.10;;;;;;5053503;28;20195;-76
2022/02/20 12:15:34;;;;;;;24.83;5.07;;;24.40;80.10;;;;;;5053360;28;20179;-76
2022/02/20 12:18:15;;;;;;;26.77;5.70;;;24.30;80.30;;;;;;5053485;28;20175;-76
2022/02/20 12:20:57;;;;;;;22.40;6.20;;;24.30;80.50;;;;;;5052640;28;20179;-78
2022/02/20 12:23:30;;;;;;;20.30;5.33;;;24.30;80.80;;;;;;5053356;28;20264;-76
2022/02/20 12:26:08;;;;;;;26.17;5.63;;;24.30;80.90;;;;;;5050384;28;20179;-75
2022/02/20 12:28:36;;;;;;;20.87;5.60;;;24.30;81.00;;;;;;5046822;28;20180;-79
2022/02/20 12:31:17;;;;;;;27.70;5.50;;;24.30;80.60;;;;;;5053019;28;20215;-78
2022/02/20 12:33:50;;;;;;;20.73;4.70;;;24.30;80.90;;;;;;5053768;28;20214;-76
2022/02/20 12:36:29;;;;;;;18.70;5.77;;;24.30;80.70;;;;;;5053546;28;20176;-76
2022/02/20 12:39:03;;;;;;;24.77;5.07;;;24.30;80.80;;;;;;5050550;28;20214;-76
2022/02/20 12:41:31;;;;;;;16.33;5.60;;;24.20;81.10;;;;;;5049647;28;20180;-76
2022/02/20 12:43:59;;;;;;;22.57;5.50;;;24.20;81.10;;;;;;5053358;28;20229;-75
2022/02/20 12:46:26;;;;;;;24.40;5.70;;;24.10;81.40;;;;;;5052491;28;20223;-75
2022/02/20 12:48:55;;;;;;;18.17;4.87;;;24.20;81.60;;;;;;5049478;28;20659;-76